createdAt,value
2023-02-16T00:00:26.724Z,98.22
2023-02-16T00:01:26.562Z,98.12
2023-02-16T00:02:26.576Z,98.02
2023-02-16T00:03:26.585Z,97.91
2023-02-16T00:04:26.577Z,97.91
2023-02-16T00:05:26.504Z,97.91
2023-02-16T00:06:26.488Z,97.91
2023-02-16T00:07:26.474Z,97.81
2023-02-16T00:08:26.525Z,97.71
2023-02-16T00:09:26.467Z,97.91
2023-02-16T00:10:26.448Z,98.02
2023-02-16T00:11:26.450Z,97.91
2023-02-16T00:12:26.432Z,97.96
2023-02-16T00:13:26.428Z,97.96
2023-02-16T00:14:26.460Z,97.96
2023-02-16T00:15:26.405Z,97.91
2023-02-16T00:16:26.419Z,97.86
2023-02-16T00:17:26.371Z,97.86
2023-02-16T00:18:26.379Z,98.07
2023-02-16T00:19:26.420Z,98.07
2023-02-16T00:20:26.398Z,98.07
2023-02-16T00:21:26.317Z,98.07
2023-02-16T00:22:26.337Z,97.96
2023-02-16T00:23:26.307Z,97.86
2023-02-16T00:24:27.551Z,97.86
2023-02-16T00:25:26.321Z,97.86
2023-02-16T00:26:26.288Z,97.65
2023-02-16T00:27:26.281Z,97.65
2023-02-16T00:28:26.282Z,97.75
2023-02-16T00:29:26.308Z,97.65
2023-02-16T00:30:26.317Z,97.65
2023-02-16T00:31:26.352Z,97.65
2023-02-16T00:32:26.300Z,97.55
2023-02-16T00:33:26.242Z,97.44
2023-02-16T00:34:26.211Z,97.34
2023-02-16T00:35:26.209Z,97.44
2023-02-16T00:36:26.193Z,97.44
2023-02-16T00:37:26.162Z,97.44
2023-02-16T00:38:26.201Z,97.34
2023-02-16T00:39:26.193Z,97.34
2023-02-16T00:40:26.139Z,97.24
2023-02-16T00:41:26.158Z,97.34
2023-02-16T00:42:26.148Z,97.34
2023-02-16T00:43:26.138Z,97.44
2023-02-16T00:44:26.094Z,97.55
2023-02-16T00:45:26.113Z,97.55
2023-02-16T00:46:26.083Z,97.65
2023-02-16T00:47:26.076Z,97.65
2023-02-16T00:48:26.075Z,97.59
2023-02-16T00:49:26.036Z,97.69
2023-02-16T00:50:26.075Z,98.00
2023-02-16T00:51:26.675Z,98.00
2023-02-16T00:52:26.036Z,98.11
2023-02-16T00:53:25.987Z,98.00
2023-02-16T00:54:27.568Z,98.00
2023-02-16T00:55:26.005Z,98.00
2023-02-16T00:56:25.966Z,97.90
2023-02-16T00:57:25.972Z,97.90
2023-02-16T00:58:26.004Z,98.00
2023-02-16T00:59:25.955Z,97.90
2023-02-16T01:00:25.949Z,98.00
2023-02-16T01:01:25.952Z,98.00
2023-02-16T01:02:25.945Z,98.11
2023-02-16T01:03:25.909Z,98.21
2023-02-16T01:04:25.945Z,98.11
2023-02-16T01:05:25.877Z,98.11
2023-02-16T01:06:25.887Z,98.21
2023-02-16T01:07:25.917Z,98.21
2023-02-16T01:08:25.835Z,98.32
2023-02-16T01:09:25.826Z,98.32
2023-02-16T01:10:25.853Z,98.21
2023-02-16T01:11:25.804Z,98.11
2023-02-16T01:12:25.838Z,98.00
2023-02-16T01:13:25.805Z,98.11
2023-02-16T01:14:25.796Z,98.11
2023-02-16T01:15:25.784Z,98.11
2023-02-16T01:16:25.773Z,98.26
2023-02-16T01:17:25.764Z,98.36
2023-02-16T01:18:25.755Z,98.57
2023-02-16T01:19:25.715Z,98.57
2023-02-16T01:20:25.759Z,98.57
2023-02-16T01:21:25.721Z,98.57
2023-02-16T01:22:25.684Z,98.78
2023-02-16T01:23:25.753Z,98.88
2023-02-16T01:24:26.413Z,98.99
2023-02-16T01:25:25.679Z,99.09
2023-02-16T01:26:25.663Z,99.19
2023-02-16T01:27:25.668Z,99.09
2023-02-16T01:28:25.710Z,99.09
2023-02-16T01:29:25.673Z,99.09
2023-02-16T01:30:25.631Z,99.09
2023-02-16T01:31:25.756Z,98.99
2023-02-16T01:32:25.676Z,98.99
2023-02-16T01:33:25.587Z,98.88
2023-02-16T01:34:25.563Z,98.78
2023-02-16T01:35:25.548Z,99.09
2023-02-16T01:36:25.544Z,98.99
2023-02-16T01:37:25.625Z,98.88
2023-02-16T01:38:25.542Z,98.68
2023-02-16T01:39:25.532Z,98.57
2023-02-16T01:40:25.528Z,98.68
2023-02-16T01:41:25.490Z,98.78
2023-02-16T01:42:25.509Z,98.78
2023-02-16T01:43:25.489Z,98.68
2023-02-16T01:44:25.479Z,98.57
2023-02-16T01:45:25.489Z,98.57
2023-02-16T01:46:25.552Z,98.57
2023-02-16T01:47:25.486Z,98.47
2023-02-16T01:48:25.429Z,98.57
2023-02-16T01:49:25.425Z,98.68
2023-02-16T01:50:25.440Z,98.78
2023-02-16T01:51:25.415Z,98.57
2023-02-16T01:52:25.370Z,98.51
2023-02-16T01:53:25.389Z,98.61
2023-02-16T01:54:26.682Z,98.72
2023-02-16T01:55:25.377Z,98.93
2023-02-16T01:56:25.362Z,99.13
2023-02-16T01:57:25.352Z,99.13
2023-02-16T01:58:25.359Z,99.03
2023-02-16T01:59:25.299Z,99.03
2023-02-16T02:00:25.292Z,98.93
2023-02-16T02:01:25.307Z,98.93
2023-02-16T02:02:25.342Z,99.03
2023-02-16T02:03:25.281Z,99.13
2023-02-16T02:04:25.272Z,99.24
2023-02-16T02:05:25.267Z,99.34
2023-02-16T02:06:25.235Z,99.55
2023-02-16T02:07:25.243Z,99.55
2023-02-16T02:08:25.231Z,99.55
2023-02-16T02:09:25.236Z,99.55
2023-02-16T02:10:25.203Z,99.55
2023-02-16T02:11:25.391Z,99.65
2023-02-16T02:12:25.174Z,99.55
2023-02-16T02:13:25.174Z,99.34
2023-02-16T02:14:25.172Z,99.34
2023-02-16T02:15:25.176Z,99.44
2023-02-16T02:16:25.204Z,99.55
2023-02-16T02:17:25.113Z,99.34
2023-02-16T02:18:25.126Z,99.34
2023-02-16T02:19:25.126Z,99.44
2023-02-16T02:20:25.110Z,99.44
2023-02-16T02:21:25.105Z,99.44
2023-02-16T02:22:25.093Z,99.44
2023-02-16T02:23:25.090Z,99.44
2023-02-16T02:24:26.761Z,99.59
2023-02-16T02:25:25.056Z,99.65
2023-02-16T02:26:25.045Z,99.65
2023-02-16T02:27:25.059Z,99.65
2023-02-16T02:28:25.050Z,99.55
2023-02-16T02:29:25.029Z,99.65
2023-02-16T02:30:25.022Z,99.65
2023-02-16T02:31:25.256Z,99.76
2023-02-16T02:32:25.062Z,99.76
2023-02-16T02:33:24.949Z,99.65
2023-02-16T02:34:24.982Z,99.44
2023-02-16T02:35:24.964Z,99.55
2023-02-16T02:36:24.950Z,99.65
2023-02-16T02:37:24.946Z,99.55
2023-02-16T02:38:24.932Z,99.34
2023-02-16T02:39:24.906Z,99.24
2023-02-16T02:40:24.924Z,99.24
2023-02-16T02:41:24.897Z,99.34
2023-02-16T02:42:24.910Z,99.24
2023-02-16T02:43:24.875Z,99.28
2023-02-16T02:44:24.868Z,99.28
2023-02-16T02:45:24.868Z,99.38
2023-02-16T02:46:25.011Z,99.49
2023-02-16T02:47:24.817Z,99.49
2023-02-16T02:48:24.817Z,99.49
2023-02-16T02:49:24.830Z,99.59
2023-02-16T02:50:24.809Z,99.70
2023-02-16T02:51:24.776Z,99.70
2023-02-16T02:52:24.778Z,99.80
2023-02-16T02:53:24.778Z,99.91
2023-02-16T02:54:25.841Z,99.80
2023-02-16T02:55:24.769Z,99.80
2023-02-16T02:56:24.707Z,99.70
2023-02-16T02:57:24.748Z,99.70
2023-02-16T02:58:24.688Z,99.80
2023-02-16T02:59:24.688Z,99.80
2023-02-16T03:00:24.730Z,99.80
2023-02-16T03:01:24.730Z,99.91
2023-02-16T03:02:24.691Z,99.91
2023-02-16T03:03:24.681Z,99.99
2023-02-16T03:04:24.673Z,99.99
2023-02-16T03:05:24.678Z,99.91
2023-02-16T03:06:24.651Z,99.91
2023-02-16T03:07:24.591Z,99.91
2023-02-16T03:08:24.611Z,99.99
2023-02-16T03:09:24.610Z,99.91
2023-02-16T03:10:24.589Z,99.80
2023-02-16T03:11:24.608Z,99.95
2023-02-16T03:12:24.627Z,99.95
2023-02-16T03:13:24.614Z,99.95
2023-02-16T03:14:24.598Z,99.95
2023-02-16T03:15:24.524Z,99.95
2023-02-16T03:16:24.605Z,99.85
2023-02-16T03:17:24.504Z,99.85
2023-02-16T03:18:24.482Z,99.74
2023-02-16T03:19:24.516Z,99.85
2023-02-16T03:20:24.453Z,99.95
2023-02-16T03:21:24.450Z,99.95
2023-02-16T03:22:24.442Z,99.95
2023-02-16T03:23:24.443Z,99.95
2023-02-16T03:24:25.942Z,99.85
2023-02-16T03:25:24.400Z,99.74
2023-02-16T03:26:24.402Z,99.64
2023-02-16T03:27:24.448Z,99.74
2023-02-16T03:28:24.410Z,99.64
2023-02-16T03:29:24.408Z,99.64
2023-02-16T03:30:24.486Z,99.74
2023-02-16T03:31:24.474Z,99.85
2023-02-16T03:32:24.369Z,99.95
2023-02-16T03:33:24.372Z,99.95
2023-02-16T03:34:24.328Z,99.95
2023-02-16T03:35:24.330Z,99.95
2023-02-16T03:36:24.285Z,99.85
2023-02-16T03:37:24.362Z,99.74
2023-02-16T03:38:24.306Z,99.54
2023-02-16T03:39:24.278Z,99.43
2023-02-16T03:40:24.258Z,99.54
2023-02-16T03:41:24.248Z,99.54
2023-02-16T03:42:24.265Z,99.43
2023-02-16T03:43:24.263Z,99.33
2023-02-16T03:44:24.223Z,99.64
2023-02-16T03:45:24.220Z,99.74
2023-02-16T03:46:24.177Z,99.85
2023-02-16T03:47:24.200Z,99.74
2023-02-16T03:48:24.286Z,99.54
2023-02-16T03:49:24.189Z,99.54
2023-02-16T03:50:24.166Z,99.64
2023-02-16T03:51:24.190Z,99.54
2023-02-16T03:52:24.171Z,99.43
2023-02-16T03:53:24.107Z,99.43
2023-02-16T03:54:25.091Z,99.54
2023-02-16T03:55:24.126Z,99.54
2023-02-16T03:56:24.120Z,99.43
2023-02-16T03:57:24.167Z,99.43
2023-02-16T03:58:24.069Z,99.33
2023-02-16T03:59:24.095Z,99.22
2023-02-16T04:00:24.078Z,99.22
2023-02-16T04:01:24.044Z,99.22
2023-02-16T04:02:24.085Z,99.12
2023-02-16T04:03:24.035Z,98.91
2023-02-16T04:04:24.072Z,98.81
2023-02-16T04:05:24.020Z,98.81
2023-02-16T04:06:24.005Z,98.71
2023-02-16T04:07:24.007Z,98.50
2023-02-16T04:08:24.001Z,98.71
2023-02-16T04:09:23.984Z,98.71
2023-02-16T04:10:23.968Z,98.75
2023-02-16T04:11:23.950Z,98.65
2023-02-16T04:12:23.936Z,98.75
2023-02-16T04:13:23.926Z,98.96
2023-02-16T04:14:23.930Z,98.81
2023-02-16T04:15:23.968Z,98.71
2023-02-16T04:16:23.966Z,98.44
2023-02-16T04:17:23.932Z,98.33
2023-02-16T04:18:23.876Z,98.23
2023-02-16T04:19:23.837Z,98.33
2023-02-16T04:20:23.842Z,98.44
2023-02-16T04:21:23.840Z,98.65
2023-02-16T04:22:23.867Z,98.75
2023-02-16T04:23:23.890Z,98.65
2023-02-16T04:24:23.815Z,98.75
2023-02-16T04:25:23.808Z,98.65
2023-02-16T04:26:23.768Z,98.65
2023-02-16T04:27:23.884Z,98.54
2023-02-16T04:28:23.797Z,98.54
2023-02-16T04:29:23.775Z,98.33
2023-02-16T04:30:23.832Z,98.23
2023-02-16T04:31:23.833Z,98.23
2023-02-16T04:32:23.770Z,98.13
2023-02-16T04:33:23.731Z,98.13
2023-02-16T04:34:23.710Z,98.13
2023-02-16T04:35:23.677Z,98.02
2023-02-16T04:36:23.713Z,98.02
2023-02-16T04:37:23.707Z,98.02
2023-02-16T04:38:23.660Z,97.92
2023-02-16T04:39:23.664Z,97.92
2023-02-16T04:40:23.646Z,97.92
2023-02-16T04:41:23.740Z,97.92
2023-02-16T04:42:23.623Z,97.81
2023-02-16T04:43:23.639Z,97.81
2023-02-16T04:44:23.576Z,97.81
2023-02-16T04:45:23.581Z,97.81
2023-02-16T04:46:23.658Z,97.81
2023-02-16T04:47:23.560Z,97.81
2023-02-16T04:48:23.538Z,97.61
2023-02-16T04:49:23.549Z,97.71
2023-02-16T04:50:23.538Z,97.81
2023-02-16T04:51:23.535Z,97.61
2023-02-16T04:52:23.524Z,97.61
2023-02-16T04:53:23.508Z,97.81
2023-02-16T04:54:23.502Z,97.61
2023-02-16T04:55:23.506Z,97.71
2023-02-16T04:56:23.485Z,97.71
2023-02-16T04:57:23.512Z,97.61
2023-02-16T04:58:23.464Z,97.50
2023-02-16T04:59:23.485Z,97.50
2023-02-16T05:00:23.432Z,97.40
2023-02-16T05:01:23.474Z,97.30
2023-02-16T05:02:23.387Z,97.30
2023-02-16T05:03:23.440Z,97.30
2023-02-16T05:04:23.407Z,97.44
2023-02-16T05:05:23.401Z,97.40
2023-02-16T05:06:23.380Z,97.34
2023-02-16T05:07:23.390Z,97.30
2023-02-16T05:08:23.387Z,97.09
2023-02-16T05:09:23.354Z,96.88
2023-02-16T05:10:23.354Z,96.82
2023-02-16T05:11:23.298Z,96.82
2023-02-16T05:12:23.382Z,96.72
2023-02-16T05:13:23.286Z,96.72
2023-02-16T05:14:23.271Z,96.61
2023-02-16T05:15:23.281Z,96.72
2023-02-16T05:16:23.280Z,96.82
2023-02-16T05:17:23.277Z,96.61
2023-02-16T05:18:23.251Z,96.61
2023-02-16T05:19:23.240Z,96.61
2023-02-16T05:20:23.228Z,96.82
2023-02-16T05:21:23.248Z,96.82
2023-02-16T05:22:23.213Z,96.72
2023-02-16T05:23:23.237Z,96.72
2023-02-16T05:24:23.224Z,96.82
2023-02-16T05:25:23.177Z,96.72
2023-02-16T05:26:23.177Z,96.61
2023-02-16T05:27:23.142Z,96.72
2023-02-16T05:28:23.192Z,96.72
2023-02-16T05:29:23.129Z,96.51
2023-02-16T05:30:23.184Z,96.20
2023-02-16T05:31:23.266Z,96.51
2023-02-16T05:32:23.264Z,96.41
2023-02-16T05:33:23.179Z,96.30
2023-02-16T05:34:23.097Z,96.30
2023-02-16T05:35:23.109Z,96.30
2023-02-16T05:36:23.063Z,96.41
2023-02-16T05:37:23.038Z,96.61
2023-02-16T05:38:23.012Z,96.51
2023-02-16T05:39:23.014Z,96.41
2023-02-16T05:40:23.044Z,96.20
2023-02-16T05:41:22.961Z,96.20
2023-02-16T05:42:23.015Z,96.09
2023-02-16T05:43:23.026Z,96.30
2023-02-16T05:44:23.015Z,96.41
2023-02-16T05:45:22.921Z,96.51
2023-02-16T05:46:23.783Z,96.51
2023-02-16T05:47:22.877Z,96.41
2023-02-16T05:48:22.866Z,96.41
2023-02-16T05:49:22.891Z,96.20
2023-02-16T05:50:22.885Z,96.09
2023-02-16T05:51:22.857Z,95.78
2023-02-16T05:52:22.852Z,95.89
2023-02-16T05:53:22.838Z,96.09
2023-02-16T05:54:22.849Z,96.09
2023-02-16T05:55:22.853Z,95.78
2023-02-16T05:56:22.791Z,95.99
2023-02-16T05:57:22.789Z,95.99
2023-02-16T05:58:22.827Z,95.99
2023-02-16T05:59:22.793Z,96.09
2023-02-16T06:00:22.763Z,95.89
2023-02-16T06:01:22.743Z,95.93
2023-02-16T06:02:22.791Z,95.93
2023-02-16T06:03:22.913Z,96.14
2023-02-16T06:04:22.781Z,96.34
2023-02-16T06:05:22.987Z,96.45
2023-02-16T06:06:22.760Z,96.30
2023-02-16T06:07:22.701Z,96.20
2023-02-16T06:08:22.733Z,95.67
2023-02-16T06:09:22.679Z,95.78
2023-02-16T06:10:22.693Z,95.67
2023-02-16T06:11:22.650Z,95.67
2023-02-16T06:12:22.656Z,95.67
2023-02-16T06:13:22.666Z,95.67
2023-02-16T06:14:22.631Z,95.57
2023-02-16T06:15:22.623Z,95.57
2023-02-16T06:16:22.708Z,95.67
2023-02-16T06:17:22.574Z,95.67
2023-02-16T06:18:22.603Z,95.78
2023-02-16T06:19:22.596Z,95.67
2023-02-16T06:20:22.584Z,95.57
2023-02-16T06:21:22.566Z,95.47
2023-02-16T06:22:22.590Z,95.57
2023-02-16T06:23:22.545Z,95.47
2023-02-16T06:24:22.522Z,95.47
2023-02-16T06:25:22.603Z,95.57
2023-02-16T06:26:22.804Z,95.67
2023-02-16T06:27:22.494Z,95.57
2023-02-16T06:28:22.515Z,95.47
2023-02-16T06:29:22.459Z,95.36
2023-02-16T06:30:22.502Z,95.15
2023-02-16T06:31:22.767Z,95.15
2023-02-16T06:32:22.565Z,95.15
2023-02-16T06:33:22.485Z,95.15
2023-02-16T06:34:22.443Z,95.05
2023-02-16T06:35:22.424Z,95.26
2023-02-16T06:36:22.428Z,95.26
2023-02-16T06:37:22.383Z,95.26
2023-02-16T06:38:22.476Z,95.15
2023-02-16T06:39:22.468Z,95.05
2023-02-16T06:40:22.414Z,94.95
2023-02-16T06:41:22.367Z,94.84
2023-02-16T06:42:22.362Z,94.74
2023-02-16T06:43:22.314Z,94.64
2023-02-16T06:44:22.324Z,94.53
2023-02-16T06:45:22.305Z,94.64
2023-02-16T06:46:22.327Z,94.64
2023-02-16T06:47:22.337Z,94.53
2023-02-16T06:48:22.299Z,94.32
2023-02-16T06:49:22.270Z,94.32
2023-02-16T06:50:22.254Z,94.22
2023-02-16T06:51:22.400Z,94.32
2023-02-16T06:52:22.357Z,94.43
2023-02-16T06:53:22.237Z,94.43
2023-02-16T06:54:22.272Z,94.32
2023-02-16T06:55:22.297Z,94.28
2023-02-16T06:56:22.236Z,94.07
2023-02-16T06:57:22.183Z,93.97
2023-02-16T06:58:22.322Z,93.76
2023-02-16T06:59:22.328Z,93.66
2023-02-16T07:00:22.416Z,93.87
2023-02-16T07:01:22.288Z,93.66
2023-02-16T07:02:22.181Z,93.55
2023-02-16T07:03:22.239Z,93.35
2023-02-16T07:04:22.107Z,93.24
2023-02-16T07:05:22.091Z,93.30
2023-02-16T07:06:22.167Z,93.20
2023-02-16T07:07:22.111Z,92.88
2023-02-16T07:08:22.104Z,92.78
2023-02-16T07:09:22.108Z,92.47
2023-02-16T07:10:22.159Z,92.16
2023-02-16T07:11:22.125Z,92.36
2023-02-16T07:12:22.050Z,92.36
2023-02-16T07:13:22.014Z,92.26
2023-02-16T07:14:21.999Z,92.11
2023-02-16T07:15:22.004Z,91.91
2023-02-16T07:16:22.083Z,91.70
2023-02-16T07:17:22.040Z,91.70
2023-02-16T07:18:22.003Z,91.49
2023-02-16T07:19:21.981Z,91.08
2023-02-16T07:20:22.021Z,91.08
2023-02-16T07:21:22.020Z,91.18
2023-02-16T07:22:21.922Z,91.14
2023-02-16T07:23:21.937Z,91.03
2023-02-16T07:24:21.918Z,90.83
2023-02-16T07:25:21.918Z,90.52
2023-02-16T07:26:21.934Z,90.52
2023-02-16T07:27:21.902Z,90.31
2023-02-16T07:28:21.862Z,90.41
2023-02-16T07:29:21.892Z,90.31
2023-02-16T07:30:21.913Z,90.20
2023-02-16T07:31:21.983Z,90.20
2023-02-16T07:32:21.846Z,90.06
2023-02-16T07:33:21.822Z,89.96
2023-02-16T07:34:22.123Z,89.75
2023-02-16T07:35:21.845Z,89.54
2023-02-16T07:36:21.773Z,89.54
2023-02-16T07:37:21.880Z,89.34
2023-02-16T07:38:21.773Z,89.44
2023-02-16T07:39:21.899Z,89.65
2023-02-16T07:40:21.796Z,89.54
2023-02-16T07:41:21.753Z,89.54
2023-02-16T07:42:21.868Z,89.54
2023-02-16T07:43:21.738Z,89.54
2023-02-16T07:44:21.689Z,89.65
2023-02-16T07:45:21.834Z,89.65
2023-02-16T07:46:21.765Z,89.44
2023-02-16T07:47:21.691Z,89.03
2023-02-16T07:48:21.687Z,89.13
2023-02-16T07:49:21.661Z,89.34
2023-02-16T07:50:21.666Z,89.23
2023-02-16T07:51:21.638Z,89.34
2023-02-16T07:52:21.637Z,89.65
2023-02-16T07:53:21.598Z,91.99
2023-02-16T07:54:21.608Z,90.75
2023-02-16T07:55:21.592Z,89.19
2023-02-16T07:56:21.590Z,88.67
2023-02-16T07:57:21.665Z,88.57
2023-02-16T07:58:21.548Z,88.42
2023-02-16T07:59:21.671Z,88.11
2023-02-16T08:00:21.581Z,87.90
2023-02-16T08:01:21.551Z,87.80
2023-02-16T08:02:21.624Z,87.38
2023-02-16T08:03:21.688Z,87.38
2023-02-16T08:04:21.535Z,87.38
2023-02-16T08:05:21.520Z,87.28
2023-02-16T08:06:21.522Z,87.07
2023-02-16T08:07:21.471Z,87.07
2023-02-16T08:08:21.463Z,87.14
2023-02-16T08:09:21.471Z,87.24
2023-02-16T08:10:21.471Z,87.14
2023-02-16T08:11:21.431Z,87.04
2023-02-16T08:12:21.486Z,86.72
2023-02-16T08:13:21.394Z,86.52
2023-02-16T08:14:21.392Z,86.83
2023-02-16T08:15:21.415Z,86.72
2023-02-16T08:16:21.758Z,87.04
2023-02-16T08:17:21.382Z,86.93
2023-02-16T08:18:21.384Z,86.93
2023-02-16T08:19:21.341Z,86.93
2023-02-16T08:20:23.809Z,86.68
2023-02-16T08:21:22.465Z,86.27
2023-02-16T08:22:21.326Z,86.47
2023-02-16T08:23:21.415Z,86.37
2023-02-16T08:24:21.359Z,86.17
2023-02-16T08:25:21.289Z,86.27
2023-02-16T08:26:21.354Z,86.27
2023-02-16T08:27:21.294Z,86.37
2023-02-16T08:28:21.238Z,86.17
2023-02-16T08:29:21.459Z,86.17
2023-02-16T08:30:21.297Z,86.07
2023-02-16T08:31:21.437Z,85.92
2023-02-16T08:32:21.261Z,85.71
2023-02-16T08:33:21.340Z,85.50
2023-02-16T08:34:21.214Z,85.75
2023-02-16T08:35:21.241Z,85.82
2023-02-16T08:36:21.272Z,85.40
2023-02-16T08:37:21.172Z,85.61
2023-02-16T08:38:21.180Z,85.71
2023-02-16T08:39:21.170Z,85.92
2023-02-16T08:40:21.215Z,85.92
2023-02-16T08:41:21.176Z,85.92
2023-02-16T08:42:21.125Z,85.57
2023-02-16T08:43:21.214Z,85.26
2023-02-16T08:44:21.128Z,84.74
2023-02-16T08:45:21.132Z,84.84
2023-02-16T08:46:21.093Z,84.53
2023-02-16T08:47:21.110Z,84.12
2023-02-16T08:48:21.084Z,84.29
2023-02-16T08:49:21.040Z,84.08
2023-02-16T08:50:21.010Z,83.98
2023-02-16T08:51:21.061Z,84.29
2023-02-16T08:52:21.043Z,84.08
2023-02-16T08:53:20.990Z,83.84
2023-02-16T08:54:21.049Z,83.42
2023-02-16T08:55:20.988Z,83.22
2023-02-16T08:56:20.972Z,82.80
2023-02-16T08:57:20.943Z,82.80
2023-02-16T08:58:21.030Z,82.87
2023-02-16T08:59:20.917Z,82.66
2023-02-16T09:00:20.938Z,82.42
2023-02-16T09:01:21.014Z,82.21
2023-02-16T09:02:20.941Z,81.80
2023-02-16T09:03:20.951Z,81.66
2023-02-16T09:04:20.926Z,81.35
2023-02-16T09:05:20.896Z,81.04
2023-02-16T09:06:20.871Z,80.79
2023-02-16T09:07:20.861Z,80.69
2023-02-16T09:08:20.845Z,80.18
2023-02-16T09:09:20.829Z,79.97
2023-02-16T09:10:21.250Z,79.66
2023-02-16T09:11:20.837Z,79.35
2023-02-16T09:12:20.836Z,79.25
2023-02-16T09:13:20.803Z,79.31
2023-02-16T09:14:20.948Z,79.00
2023-02-16T09:15:20.763Z,79.11
2023-02-16T09:16:20.896Z,79.21
2023-02-16T09:17:20.772Z,78.97
2023-02-16T09:18:20.784Z,79.27
2023-02-16T09:19:20.867Z,79.07
2023-02-16T09:20:20.799Z,79.03
2023-02-16T09:21:20.697Z,78.41
2023-02-16T09:22:20.729Z,77.80
2023-02-16T09:23:20.791Z,77.59
2023-02-16T09:24:20.713Z,77.59
2023-02-16T09:25:20.654Z,77.48
2023-02-16T09:26:20.684Z,77.48
2023-02-16T09:27:20.776Z,77.38
2023-02-16T09:28:20.646Z,77.14
2023-02-16T09:29:20.672Z,77.14
2023-02-16T09:30:20.744Z,76.93
2023-02-16T09:31:20.855Z,76.70
2023-02-16T09:32:20.623Z,76.18
2023-02-16T09:33:20.600Z,76.07
2023-02-16T09:34:20.563Z,76.28
2023-02-16T09:35:20.645Z,76.18
2023-02-16T09:36:20.587Z,76.18
2023-02-16T09:37:20.641Z,75.67
2023-02-16T09:38:20.558Z,75.42
2023-02-16T09:39:20.578Z,75.32
2023-02-16T09:40:20.558Z,75.22
2023-02-16T09:41:20.672Z,74.87
2023-02-16T09:42:20.545Z,74.87
2023-02-16T09:43:20.643Z,74.87
2023-02-16T09:44:20.626Z,74.36
2023-02-16T09:45:20.454Z,74.77
2023-02-16T09:46:22.323Z,74.53
2023-02-16T09:47:20.575Z,74.02
2023-02-16T09:48:20.432Z,73.91
2023-02-16T09:49:20.435Z,73.50
2023-02-16T09:50:38.313Z,73.61
2023-02-16T09:51:29.508Z,73.27
2023-02-16T09:52:21.496Z,73.09
2023-02-16T09:53:20.485Z,73.06
2023-02-16T09:54:20.362Z,72.65
2023-02-16T09:55:20.417Z,72.75
2023-02-16T09:56:20.358Z,72.85
2023-02-16T09:57:20.385Z,72.55
2023-02-16T09:58:20.303Z,72.34
2023-02-16T09:59:20.344Z,72.13
2023-02-16T10:00:20.355Z,71.93
2023-02-16T10:01:20.405Z,71.83
2023-02-16T10:02:20.302Z,72.13
2023-02-16T10:03:20.392Z,72.00
2023-02-16T10:04:20.309Z,71.59
2023-02-16T10:05:20.308Z,71.69
2023-02-16T10:06:20.215Z,71.59
2023-02-16T10:07:20.252Z,71.89
2023-02-16T10:08:20.208Z,71.38
2023-02-16T10:09:20.490Z,71.69
2023-02-16T10:10:20.307Z,71.69
2023-02-16T10:11:20.196Z,71.38
2023-02-16T10:12:20.243Z,71.35
2023-02-16T10:13:20.222Z,71.25
2023-02-16T10:14:20.258Z,70.73
2023-02-16T10:15:20.149Z,70.94
2023-02-16T10:16:20.145Z,70.70
2023-02-16T10:17:20.145Z,70.39
2023-02-16T10:18:20.094Z,70.39
2023-02-16T10:19:20.176Z,70.29
2023-02-16T10:20:20.167Z,70.18
2023-02-16T10:21:20.099Z,70.05
2023-02-16T10:22:20.085Z,69.47
2023-02-16T10:23:20.114Z,69.98
2023-02-16T10:24:20.132Z,70.08
2023-02-16T10:25:20.118Z,69.74
2023-02-16T10:26:20.011Z,69.84
2023-02-16T10:27:20.133Z,69.64
2023-02-16T10:28:22.460Z,69.64
2023-02-16T10:29:19.995Z,69.54
2023-02-16T10:30:20.168Z,69.43
2023-02-16T10:31:20.019Z,69.40
2023-02-16T10:32:19.973Z,69.23
2023-02-16T10:33:19.961Z,69.43
2023-02-16T10:34:24.275Z,69.13
2023-02-16T10:35:20.035Z,69.16
2023-02-16T10:36:19.964Z,69.26
2023-02-16T10:37:19.913Z,69.37
2023-02-16T10:38:19.893Z,69.67
2023-02-16T10:39:19.897Z,69.26
2023-02-16T10:40:22.896Z,69.33
2023-02-16T10:41:19.937Z,69.23
2023-02-16T10:42:19.850Z,69.13
2023-02-16T10:43:19.886Z,68.82
2023-02-16T10:44:19.855Z,68.51
2023-02-16T10:45:19.854Z,68.51
2023-02-16T10:46:20.005Z,68.38
2023-02-16T10:47:20.033Z,68.30
2023-02-16T10:48:19.893Z,68.51
2023-02-16T10:49:19.886Z,68.51
2023-02-16T10:50:19.799Z,68.51
2023-02-16T10:51:19.779Z,68.38
2023-02-16T10:52:19.773Z,68.14
2023-02-16T10:53:19.805Z,67.63
2023-02-16T10:54:19.764Z,67.22
2023-02-16T10:55:19.721Z,67.11
2023-02-16T10:56:19.702Z,67.08
2023-02-16T10:57:19.839Z,66.67
2023-02-16T10:58:21.749Z,66.57
2023-02-16T10:59:19.858Z,66.88
2023-02-16T11:00:19.734Z,66.81
2023-02-16T11:01:19.724Z,66.81
2023-02-16T11:02:19.646Z,66.71
2023-02-16T11:03:19.668Z,66.81
2023-02-16T11:04:21.995Z,66.71
2023-02-16T11:05:19.676Z,66.60
2023-02-16T11:06:19.656Z,66.91
2023-02-16T11:07:19.632Z,66.78
2023-02-16T11:08:19.613Z,66.57
2023-02-16T11:09:19.634Z,66.57
2023-02-16T11:10:19.591Z,66.57
2023-02-16T11:11:19.619Z,66.54
2023-02-16T11:12:19.577Z,66.34
2023-02-16T11:13:19.579Z,66.03
2023-02-16T11:14:19.558Z,66.13
2023-02-16T11:15:19.510Z,65.72
2023-02-16T11:16:19.627Z,65.83
2023-02-16T11:17:19.527Z,65.72
2023-02-16T11:18:19.520Z,65.69
2023-02-16T11:19:19.498Z,65.49
2023-02-16T11:20:19.499Z,65.18
2023-02-16T11:21:19.468Z,65.18
2023-02-16T11:22:19.442Z,65.28
2023-02-16T11:23:19.442Z,65.69
2023-02-16T11:24:19.424Z,65.69
2023-02-16T11:25:19.405Z,65.72
2023-02-16T11:26:19.445Z,65.52
2023-02-16T11:27:19.430Z,65.86
2023-02-16T11:28:19.422Z,66.06
2023-02-16T11:29:19.393Z,65.93
2023-02-16T11:30:19.428Z,65.83
2023-02-16T11:31:19.425Z,65.83
2023-02-16T11:32:19.342Z,65.93
2023-02-16T11:33:19.343Z,65.83
2023-02-16T11:34:19.304Z,65.83
2023-02-16T11:35:19.331Z,65.49
2023-02-16T11:36:19.432Z,65.18
2023-02-16T11:37:19.313Z,65.28
2023-02-16T11:38:19.361Z,65.28
2023-02-16T11:39:19.316Z,65.28
2023-02-16T11:40:19.272Z,65.08
2023-02-16T11:41:19.252Z,64.84
2023-02-16T11:42:19.331Z,64.77
2023-02-16T11:43:19.246Z,64.77
2023-02-16T11:44:19.235Z,64.87
2023-02-16T11:45:19.318Z,64.95
2023-02-16T11:46:19.256Z,64.64
2023-02-16T11:47:19.240Z,64.64
2023-02-16T11:48:19.166Z,64.43
2023-02-16T11:49:19.171Z,64.23
2023-02-16T11:50:19.161Z,64.54
2023-02-16T11:51:19.144Z,64.51
2023-02-16T11:52:19.197Z,64.00
2023-02-16T11:53:19.134Z,64.00
2023-02-16T11:54:19.159Z,63.89
2023-02-16T11:55:19.109Z,63.79
2023-02-16T11:56:19.072Z,63.59
